sensor_id;sensor_type;location;lat;lon;timestamp;temperature;humidity
17639;DHT22;8938;53.546;9.954;2024-01-11T00:00:08;2.70;99.90
17639;DHT22;8938;53.546;9.954;2024-01-11T00:02:34;2.70;99.90
17639;DHT22;8938;53.546;9.954;2024-01-11T00:04:59;2.80;99.90
17639;DHT22;8938;53.546;9.954;2024-01-11T00:07:25;2.80;99.90
17639;DHT22;8938;53.546;9.954;2024-01-11T00:09:50;2.90;99.90
17639;DHT22;8938;53.546;9.954;2024-01-11T00:12:16;2.80;99.90
17639;DHT22;8938;53.546;9.954;2024-01-11T00:14:42;2.80;99.90
17639;DHT22;8938;53.546;9.954;2024-01-11T00:17:07;2.80;99.90
17639;DHT22;8938;53.546;9.954;2024-01-11T00:19:33;2.70;99.90
17639;DHT22;8938;53.546;9.954;2024-01-11T00:21:58;2.80;99.90
17639;DHT22;8938;53.546;9.954;2024-01-11T00:24:24;2.90;99.90
17639;DHT22;8938;53.546;9.954;2024-01-11T00:26:49;2.90;99.90
17639;DHT22;8938;53.546;9.954;2024-01-11T00:29:15;2.90;99.90
17639;DHT22;8938;53.546;9.954;2024-01-11T00:31:41;2.90;99.90
17639;DHT22;8938;53.546;9.954;2024-01-11T00:34:06;2.80;99.90
17639;DHT22;8938;53.546;9.954;2024-01-11T00:36:32;2.80;99.90
17639;DHT22;8938;53.546;9.954;2024-01-11T00:39:02;2.80;99.90
17639;DHT22;8938;53.546;9.954;2024-01-11T00:41:27;2.90;99.90
17639;DHT22;8938;53.546;9.954;2024-01-11T00:43:53;2.90;99.90
17639;DHT22;8938;53.546;9.954;2024-01-11T00:46:19;2.90;99.90
17639;DHT22;8938;53.546;9.954;2024-01-11T00:48:45;2.90;99.90
17639;DHT22;8938;53.546;9.954;2024-01-11T00:51:10;2.90;99.90
17639;DHT22;8938;53.546;9.954;2024-01-11T00:53:36;2.80;99.90
17639;DHT22;8938;53.546;9.954;2024-01-11T00:56:02;2.80;99.90
17639;DHT22;8938;53.546;9.954;2024-01-11T00:58:28;2.70;99.90
17639;DHT22;8938;53.546;9.954;2024-01-11T01:00:54;2.70;99.90
17639;DHT22;8938;53.546;9.954;2024-01-11T01:03:22;2.70;99.90
17639;DHT22;8938;53.546;9.954;2024-01-11T01:05:48;2.70;99.90
17639;DHT22;8938;53.546;9.954;2024-01-11T01:08:14;2.70;99.90
17639;DHT22;8938;53.546;9.954;2024-01-11T01:10:40;2.70;99.90
17639;DHT22;8938;53.546;9.954;2024-01-11T01:13:05;2.70;99.90
17639;DHT22;8938;53.546;9.954;2024-01-11T01:15:31;2.70;99.90
17639;DHT22;8938;53.546;9.954;2024-01-11T01:17:57;2.60;99.90
17639;DHT22;8938;53.546;9.954;2024-01-11T01:20:22;2.60;99.90
17639;DHT22;8938;53.546;9.954;2024-01-11T01:22:49;2.60;99.90
17639;DHT22;8938;53.546;9.954;2024-01-11T01:25:14;2.50;99.90
17639;DHT22;8938;53.546;9.954;2024-01-11T01:27:40;2.50;99.90
17639;DHT22;8938;53.546;9.954;2024-01-11T01:30:06;2.50;99.90
17639;DHT22;8938;53.546;9.954;2024-01-11T01:32:32;2.50;99.90
17639;DHT22;8938;53.546;9.954;2024-01-11T01:34:59;2.40;99.90
17639;DHT22;8938;53.546;9.954;2024-01-11T01:37:24;2.40;99.90
17639;DHT22;8938;53.546;9.954;2024-01-11T01:39:50;2.50;99.90
17639;DHT22;8938;53.546;9.954;2024-01-11T01:42:15;2.40;99.90
17639;DHT22;8938;53.546;9.954;2024-01-11T01:44:41;2.40;99.90
17639;DHT22;8938;53.546;9.954;2024-01-11T01:47:08;2.40;99.90
17639;DHT22;8938;53.546;9.954;2024-01-11T01:49:35;2.50;99.90
17639;DHT22;8938;53.546;9.954;2024-01-11T01:52:03;2.50;99.90
17639;DHT22;8938;53.546;9.954;2024-01-11T01:54:29;2.50;99.90
17639;DHT22;8938;53.546;9.954;2024-01-11T01:56:56;2.40;99.90
17639;DHT22;8938;53.546;9.954;2024-01-11T01:59:24;2.40;99.90
17639;DHT22;8938;53.546;9.954;2024-01-11T02:01:51;2.40;99.90
17639;DHT22;8938;53.546;9.954;2024-01-11T02:04:17;2.30;99.90
17639;DHT22;8938;53.546;9.954;2024-01-11T02:06:44;2.30;99.90
17639;DHT22;8938;53.546;9.954;2024-01-11T02:09:12;2.20;99.90
17639;DHT22;8938;53.546;9.954;2024-01-11T02:11:38;2.20;99.90
17639;DHT22;8938;53.546;9.954;2024-01-11T02:14:05;2.10;99.90
17639;DHT22;8938;53.546;9.954;2024-01-11T02:16:30;2.10;99.90
17639;DHT22;8938;53.546;9.954;2024-01-11T02:18:56;2.10;99.90
17639;DHT22;8938;53.546;9.954;2024-01-11T02:21:23;2.20;99.90
17639;DHT22;8938;53.546;9.954;2024-01-11T02:24:18;2.20;99.90
17639;DHT22;8938;53.546;9.954;2024-01-11T02:27:04;2.20;99.90
17639;DHT22;8938;53.546;9.954;2024-01-11T02:29:31;2.20;99.90
17639;DHT22;8938;53.546;9.954;2024-01-11T02:31:57;2.20;99.90
17639;DHT22;8938;53.546;9.954;2024-01-11T02:34:24;2.20;99.90
17639;DHT22;8938;53.546;9.954;2024-01-11T02:36:51;2.20;99.90
17639;DHT22;8938;53.546;9.954;2024-01-11T02:39:19;2.20;99.90
17639;DHT22;8938;53.546;9.954;2024-01-11T02:41:44;2.20;99.90
17639;DHT22;8938;53.546;9.954;2024-01-11T02:44:11;2.20;99.90
17639;DHT22;8938;53.546;9.954;2024-01-11T02:46:36;2.20;99.90
17639;DHT22;8938;53.546;9.954;2024-01-11T02:49:02;2.20;99.90
17639;DHT22;8938;53.546;9.954;2024-01-11T02:51:27;2.40;99.90
17639;DHT22;8938;53.546;9.954;2024-01-11T02:53:53;2.40;99.90
17639;DHT22;8938;53.546;9.954;2024-01-11T02:56:18;2.40;99.90
17639;DHT22;8938;53.546;9.954;2024-01-11T02:58:44;2.40;99.90
17639;DHT22;8938;53.546;9.954;2024-01-11T03:01:09;2.40;99.90
17639;DHT22;8938;53.546;9.954;2024-01-11T03:03:35;2.50;99.90
17639;DHT22;8938;53.546;9.954;2024-01-11T03:06:01;2.50;99.90
17639;DHT22;8938;53.546;9.954;2024-01-11T03:08:26;2.60;99.90
17639;DHT22;8938;53.546;9.954;2024-01-11T03:10:52;2.60;99.90
17639;DHT22;8938;53.546;9.954;2024-01-11T03:13:17;2.60;99.90
17639;DHT22;8938;53.546;9.954;2024-01-11T03:15:43;2.60;99.90
17639;DHT22;8938;53.546;9.954;2024-01-11T03:18:09;2.60;99.90
17639;DHT22;8938;53.546;9.954;2024-01-11T03:20:35;2.60;99.90
17639;DHT22;8938;53.546;9.954;2024-01-11T03:23:00;2.50;99.90
17639;DHT22;8938;53.546;9.954;2024-01-11T03:25:26;2.50;99.90
17639;DHT22;8938;53.546;9.954;2024-01-11T03:27:51;2.60;99.90
17639;DHT22;8938;53.546;9.954;2024-01-11T03:30:17;2.70;99.90
17639;DHT22;8938;53.546;9.954;2024-01-11T03:32:42;2.70;99.90
17639;DHT22;8938;53.546;9.954;2024-01-11T03:35:08;2.70;99.90
17639;DHT22;8938;53.546;9.954;2024-01-11T03:37:34;2.80;99.90
17639;DHT22;8938;53.546;9.954;2024-01-11T03:40:01;2.80;99.90
17639;DHT22;8938;53.546;9.954;2024-01-11T03:42:26;2.80;99.90
17639;DHT22;8938;53.546;9.954;2024-01-11T03:44:52;2.90;99.90
17639;DHT22;8938;53.546;9.954;2024-01-11T03:47:17;2.80;99.90
17639;DHT22;8938;53.546;9.954;2024-01-11T03:49:43;2.80;99.90
17639;DHT22;8938;53.546;9.954;2024-01-11T03:52:09;2.80;99.90
17639;DHT22;8938;53.546;9.954;2024-01-11T03:54:35;2.80;99.90
17639;DHT22;8938;53.546;9.954;2024-01-11T03:57:00;2.70;99.90
17639;DHT22;8938;53.546;9.954;2024-01-11T03:59:26;2.80;99.90
17639;DHT22;8938;53.546;9.954;2024-01-11T04:01:51;2.80;99.90
17639;DHT22;8938;53.546;9.954;2024-01-11T04:04:18;2.80;99.90
17639;DHT22;8938;53.546;9.954;2024-01-11T04:06:43;2.90;99.90
17639;DHT22;8938;53.546;9.954;2024-01-11T04:09:09;2.90;99.90
17639;DHT22;8938;53.546;9.954;2024-01-11T04:11:34;3.00;99.90
17639;DHT22;8938;53.546;9.954;2024-01-11T04:14:00;3.00;99.90
17639;DHT22;8938;53.546;9.954;2024-01-11T04:16:26;3.00;99.90
17639;DHT22;8938;53.546;9.954;2024-01-11T04:18:51;3.00;99.90
17639;DHT22;8938;53.546;9.954;2024-01-11T04:21:35;3.00;99.90
17639;DHT22;8938;53.546;9.954;2024-01-11T04:24:04;2.90;99.90
17639;DHT22;8938;53.546;9.954;2024-01-11T04:26:29;2.90;99.90
17639;DHT22;8938;53.546;9.954;2024-01-11T04:28:55;2.90;99.90
17639;DHT22;8938;53.546;9.954;2024-01-11T04:31:22;2.80;99.90
17639;DHT22;8938;53.546;9.954;2024-01-11T04:33:48;2.80;99.90
17639;DHT22;8938;53.546;9.954;2024-01-11T04:36:13;2.90;99.90
17639;DHT22;8938;53.546;9.954;2024-01-11T04:38:39;2.90;99.90
17639;DHT22;8938;53.546;9.954;2024-01-11T04:41:09;3.00;99.90
17639;DHT22;8938;53.546;9.954;2024-01-11T04:46:13;3.00;99.90
17639;DHT22;8938;53.546;9.954;2024-01-11T04:48:39;3.00;99.90
17639;DHT22;8938;53.546;9.954;2024-01-11T04:51:04;3.00;99.90
17639;DHT22;8938;53.546;9.954;2024-01-11T04:53:30;3.00;99.90
17639;DHT22;8938;53.546;9.954;2024-01-11T04:55:55;3.00;99.90
17639;DHT22;8938;53.546;9.954;2024-01-11T04:58:21;3.00;99.90
17639;DHT22;8938;53.546;9.954;2024-01-11T05:00:47;3.00;99.90
17639;DHT22;8938;53.546;9.954;2024-01-11T05:03:12;3.00;99.90
17639;DHT22;8938;53.546;9.954;2024-01-11T05:05:38;3.00;99.90
17639;DHT22;8938;53.546;9.954;2024-01-11T05:08:03;3.00;99.90
17639;DHT22;8938;53.546;9.954;2024-01-11T05:10:29;2.90;99.90
17639;DHT22;8938;53.546;9.954;2024-01-11T05:12:54;2.90;99.90
17639;DHT22;8938;53.546;9.954;2024-01-11T05:15:20;2.80;99.90
17639;DHT22;8938;53.546;9.954;2024-01-11T05:17:45;2.90;99.90
17639;DHT22;8938;53.546;9.954;2024-01-11T05:20:11;2.90;99.90
17639;DHT22;8938;53.546;9.954;2024-01-11T05:22:37;3.00;99.90
17639;DHT22;8938;53.546;9.954;2024-01-11T05:25:02;2.90;99.90
17639;DHT22;8938;53.546;9.954;2024-01-11T05:27:28;2.90;99.90
17639;DHT22;8938;53.546;9.954;2024-01-11T05:29:53;2.90;99.90
17639;DHT22;8938;53.546;9.954;2024-01-11T05:32:19;2.80;99.90
17639;DHT22;8938;53.546;9.954;2024-01-11T05:34:44;2.70;99.90
17639;DHT22;8938;53.546;9.954;2024-01-11T05:37:10;2.70;99.90
17639;DHT22;8938;53.546;9.954;2024-01-11T05:39:35;2.80;99.90
17639;DHT22;8938;53.546;9.954;2024-01-11T05:42:01;2.80;99.90
17639;DHT22;8938;53.546;9.954;2024-01-11T05:44:26;2.90;99.90
17639;DHT22;8938;53.546;9.954;2024-01-11T05:46:52;3.00;99.90
17639;DHT22;8938;53.546;9.954;2024-01-11T05:49:18;3.10;99.90
17639;DHT22;8938;53.546;9.954;2024-01-11T05:51:43;3.00;99.90
17639;DHT22;8938;53.546;9.954;2024-01-11T05:54:09;3.10;99.90
17639;DHT22;8938;53.546;9.954;2024-01-11T05:56:34;3.10;99.90
17639;DHT22;8938;53.546;9.954;2024-01-11T05:59:00;3.00;99.90
17639;DHT22;8938;53.546;9.954;2024-01-11T06:01:25;2.90;99.90
17639;DHT22;8938;53.546;9.954;2024-01-11T06:03:51;2.90;99.90
17639;DHT22;8938;53.546;9.954;2024-01-11T06:06:16;2.80;99.90
17639;DHT22;8938;53.546;9.954;2024-01-11T06:08:42;2.90;99.90
17639;DHT22;8938;53.546;9.954;2024-01-11T06:11:08;2.90;99.90
17639;DHT22;8938;53.546;9.954;2024-01-11T06:13:34;2.90;99.90
17639;DHT22;8938;53.546;9.954;2024-01-11T06:16:00;2.90;99.90
17639;DHT22;8938;53.546;9.954;2024-01-11T06:18:25;2.90;99.90
17639;DHT22;8938;53.546;9.954;2024-01-11T06:20:51;2.90;99.90
17639;DHT22;8938;53.546;9.954;2024-01-11T06:23:16;2.90;99.90
17639;DHT22;8938;53.546;9.954;2024-01-11T06:25:42;2.90;99.90
17639;DHT22;8938;53.546;9.954;2024-01-11T06:28:09;2.90;99.90
17639;DHT22;8938;53.546;9.954;2024-01-11T06:30:35;2.90;99.90
17639;DHT22;8938;53.546;9.954;2024-01-11T06:33:00;2.90;99.90
17639;DHT22;8938;53.546;9.954;2024-01-11T06:35:26;3.00;99.90
17639;DHT22;8938;53.546;9.954;2024-01-11T06:37:51;3.10;99.90
17639;DHT22;8938;53.546;9.954;2024-01-11T06:40:17;3.10;99.90
17639;DHT22;8938;53.546;9.954;2024-01-11T06:42:44;3.20;99.90
17639;DHT22;8938;53.546;9.954;2024-01-11T06:45:10;3.20;99.90
17639;DHT22;8938;53.546;9.954;2024-01-11T06:47:35;3.20;99.90
17639;DHT22;8938;53.546;9.954;2024-01-11T06:50:01;3.10;99.90
17639;DHT22;8938;53.546;9.954;2024-01-11T06:52:28;3.10;99.90
17639;DHT22;8938;53.546;9.954;2024-01-11T06:54:53;3.20;99.90
17639;DHT22;8938;53.546;9.954;2024-01-11T06:57:19;3.20;99.90
17639;DHT22;8938;53.546;9.954;2024-01-11T06:59:44;3.30;99.90
17639;DHT22;8938;53.546;9.954;2024-01-11T07:02:11;3.30;99.90
17639;DHT22;8938;53.546;9.954;2024-01-11T07:04:38;3.20;99.90
17639;DHT22;8938;53.546;9.954;2024-01-11T07:07:03;3.30;99.90
17639;DHT22;8938;53.546;9.954;2024-01-11T07:09:29;3.40;99.90
17639;DHT22;8938;53.546;9.954;2024-01-11T07:11:55;3.40;99.90
17639;DHT22;8938;53.546;9.954;2024-01-11T07:14:20;3.40;99.90
17639;DHT22;8938;53.546;9.954;2024-01-11T07:16:46;3.50;99.90
17639;DHT22;8938;53.546;9.954;2024-01-11T07:19:11;3.50;99.90
17639;DHT22;8938;53.546;9.954;2024-01-11T07:21:37;3.50;99.90
17639;DHT22;8938;53.546;9.954;2024-01-11T07:24:03;3.50;99.90
17639;DHT22;8938;53.546;9.954;2024-01-11T07:26:28;3.50;99.90
17639;DHT22;8938;53.546;9.954;2024-01-11T07:28:54;3.50;99.90
17639;DHT22;8938;53.546;9.954;2024-01-11T07:31:20;3.40;99.90
17639;DHT22;8938;53.546;9.954;2024-01-11T07:33:46;3.40;99.90
17639;DHT22;8938;53.546;9.954;2024-01-11T07:36:12;3.40;99.90
17639;DHT22;8938;53.546;9.954;2024-01-11T07:38:38;3.40;99.90
17639;DHT22;8938;53.546;9.954;2024-01-11T07:41:03;3.50;99.90
17639;DHT22;8938;53.546;9.954;2024-01-11T07:43:29;3.60;99.90
17639;DHT22;8938;53.546;9.954;2024-01-11T07:45:56;3.60;99.90
17639;DHT22;8938;53.546;9.954;2024-01-11T07:48:22;3.70;99.90
17639;DHT22;8938;53.546;9.954;2024-01-11T07:50:48;3.70;99.90
17639;DHT22;8938;53.546;9.954;2024-01-11T07:53:14;3.70;99.90
17639;DHT22;8938;53.546;9.954;2024-01-11T07:55:40;3.80;99.90
17639;DHT22;8938;53.546;9.954;2024-01-11T07:58:06;3.80;99.90
17639;DHT22;8938;53.546;9.954;2024-01-11T08:00:32;3.90;99.90
17639;DHT22;8938;53.546;9.954;2024-01-11T08:02:57;4.00;99.90
17639;DHT22;8938;53.546;9.954;2024-01-11T08:05:23;4.00;99.90
17639;DHT22;8938;53.546;9.954;2024-01-11T08:07:49;4.00;99.90
17639;DHT22;8938;53.546;9.954;2024-01-11T08:10:15;4.00;99.90
17639;DHT22;8938;53.546;9.954;2024-01-11T08:12:40;4.00;99.90
17639;DHT22;8938;53.546;9.954;2024-01-11T08:15:06;4.00;99.90
17639;DHT22;8938;53.546;9.954;2024-01-11T08:17:31;4.10;99.90
17639;DHT22;8938;53.546;9.954;2024-01-11T08:19:57;4.20;99.90
17639;DHT22;8938;53.546;9.954;2024-01-11T08:22:23;4.20;99.90
17639;DHT22;8938;53.546;9.954;2024-01-11T08:24:48;4.20;99.90
17639;DHT22;8938;53.546;9.954;2024-01-11T08:27:15;4.20;99.90
17639;DHT22;8938;53.546;9.954;2024-01-11T08:29:42;4.20;99.90
17639;DHT22;8938;53.546;9.954;2024-01-11T08:32:08;4.20;99.90
17639;DHT22;8938;53.546;9.954;2024-01-11T08:34:34;4.30;99.90
17639;DHT22;8938;53.546;9.954;2024-01-11T08:36:59;4.30;99.90
17639;DHT22;8938;53.546;9.954;2024-01-11T08:39:25;4.40;99.90
17639;DHT22;8938;53.546;9.954;2024-01-11T08:41:50;4.50;99.90
17639;DHT22;8938;53.546;9.954;2024-01-11T08:44:17;4.60;99.90
17639;DHT22;8938;53.546;9.954;2024-01-11T08:46:43;4.80;99.90
17639;DHT22;8938;53.546;9.954;2024-01-11T08:49:09;4.90;99.90
17639;DHT22;8938;53.546;9.954;2024-01-11T08:51:35;4.90;99.90
17639;DHT22;8938;53.546;9.954;2024-01-11T08:54:00;4.90;99.90
17639;DHT22;8938;53.546;9.954;2024-01-11T08:56:26;4.90;99.90
17639;DHT22;8938;53.546;9.954;2024-01-11T08:58:52;4.90;99.90
17639;DHT22;8938;53.546;9.954;2024-01-11T09:01:17;4.80;99.90
17639;DHT22;8938;53.546;9.954;2024-01-11T09:03:45;4.70;99.90
17639;DHT22;8938;53.546;9.954;2024-01-11T09:06:13;4.70;99.90
17639;DHT22;8938;53.546;9.954;2024-01-11T09:08:39;4.70;99.90
17639;DHT22;8938;53.546;9.954;2024-01-11T09:11:06;4.60;99.90
17639;DHT22;8938;53.546;9.954;2024-01-11T09:13:32;4.60;99.90
17639;DHT22;8938;53.546;9.954;2024-01-11T09:15:58;4.60;99.90
17639;DHT22;8938;53.546;9.954;2024-01-11T09:18:23;4.60;99.90
17639;DHT22;8938;53.546;9.954;2024-01-11T09:20:49;4.60;99.90
17639;DHT22;8938;53.546;9.954;2024-01-11T09:23:15;4.60;99.90
17639;DHT22;8938;53.546;9.954;2024-01-11T09:25:41;4.60;99.90
17639;DHT22;8938;53.546;9.954;2024-01-11T09:28:07;4.60;99.90
17639;DHT22;8938;53.546;9.954;2024-01-11T09:30:33;4.50;99.90
17639;DHT22;8938;53.546;9.954;2024-01-11T09:32:58;4.60;99.90
17639;DHT22;8938;53.546;9.954;2024-01-11T09:35:24;4.50;99.90
17639;DHT22;8938;53.546;9.954;2024-01-11T09:37:50;4.50;99.90
17639;DHT22;8938;53.546;9.954;2024-01-11T09:40:17;4.50;99.90
17639;DHT22;8938;53.546;9.954;2024-01-11T09:42:43;4.50;99.90
17639;DHT22;8938;53.546;9.954;2024-01-11T09:45:16;4.50;99.90
17639;DHT22;8938;53.546;9.954;2024-01-11T09:47:43;4.50;99.90
17639;DHT22;8938;53.546;9.954;2024-01-11T09:50:10;4.50;99.90
17639;DHT22;8938;53.546;9.954;2024-01-11T09:52:37;4.60;99.90
17639;DHT22;8938;53.546;9.954;2024-01-11T09:55:03;4.50;99.90
17639;DHT22;8938;53.546;9.954;2024-01-11T09:57:30;4.50;99.90
17639;DHT22;8938;53.546;9.954;2024-01-11T09:59:57;4.60;99.90
17639;DHT22;8938;53.546;9.954;2024-01-11T10:02:26;4.50;99.90
17639;DHT22;8938;53.546;9.954;2024-01-11T10:04:55;4.50;99.90
17639;DHT22;8938;53.546;9.954;2024-01-11T10:07:24;4.40;99.90
17639;DHT22;8938;53.546;9.954;2024-01-11T10:09:52;4.40;99.90
17639;DHT22;8938;53.546;9.954;2024-01-11T10:12:18;4.40;99.90
17639;DHT22;8938;53.546;9.954;2024-01-11T10:14:46;4.50;99.90
17639;DHT22;8938;53.546;9.954;2024-01-11T10:17:12;4.50;99.90
17639;DHT22;8938;53.546;9.954;2024-01-11T10:19:38;4.60;99.90
17639;DHT22;8938;53.546;9.954;2024-01-11T10:22:04;4.70;99.90
17639;DHT22;8938;53.546;9.954;2024-01-11T10:24:30;4.50;99.90
17639;DHT22;8938;53.546;9.954;2024-01-11T10:26:56;4.50;99.90
17639;DHT22;8938;53.546;9.954;2024-01-11T10:29:22;4.60;99.90
17639;DHT22;8938;53.546;9.954;2024-01-11T10:31:49;4.50;99.90
17639;DHT22;8938;53.546;9.954;2024-01-11T10:34:16;4.50;99.90
17639;DHT22;8938;53.546;9.954;2024-01-11T10:36:41;4.40;99.90
17639;DHT22;8938;53.546;9.954;2024-01-11T10:39:08;4.40;99.90
17639;DHT22;8938;53.546;9.954;2024-01-11T10:41:39;4.40;99.90
17639;DHT22;8938;53.546;9.954;2024-01-11T10:44:20;4.40;99.90
17639;DHT22;8938;53.546;9.954;2024-01-11T10:46:50;4.50;99.90
17639;DHT22;8938;53.546;9.954;2024-01-11T10:49:20;4.60;99.90
17639;DHT22;8938;53.546;9.954;2024-01-11T10:52:02;4.70;99.90
17639;DHT22;8938;53.546;9.954;2024-01-11T10:54:28;4.70;99.90
17639;DHT22;8938;53.546;9.954;2024-01-11T10:56:56;4.70;99.90
17639;DHT22;8938;53.546;9.954;2024-01-11T10:59:26;4.70;99.90
17639;DHT22;8938;53.546;9.954;2024-01-11T11:01:57;4.70;99.90
17639;DHT22;8938;53.546;9.954;2024-01-11T11:04:24;4.80;99.90
17639;DHT22;8938;53.546;9.954;2024-01-11T11:06:55;4.90;99.90
17639;DHT22;8938;53.546;9.954;2024-01-11T11:09:22;5.00;99.90
17639;DHT22;8938;53.546;9.954;2024-01-11T11:11:49;5.10;99.90
17639;DHT22;8938;53.546;9.954;2024-01-11T11:14:15;5.20;99.90
17639;DHT22;8938;53.546;9.954;2024-01-11T11:16:41;5.20;99.90
17639;DHT22;8938;53.546;9.954;2024-01-11T11:21:43;5.20;99.90
17639;DHT22;8938;53.546;9.954;2024-01-11T11:24:10;5.20;99.90
17639;DHT22;8938;53.546;9.954;2024-01-11T11:26:36;5.20;99.90
17639;DHT22;8938;53.546;9.954;2024-01-11T11:29:03;5.20;99.90
17639;DHT22;8938;53.546;9.954;2024-01-11T11:31:36;5.30;99.90
17639;DHT22;8938;53.546;9.954;2024-01-11T11:34:03;5.40;99.90
17639;DHT22;8938;53.546;9.954;2024-01-11T11:36:29;5.40;99.90
17639;DHT22;8938;53.546;9.954;2024-01-11T11:38:56;5.30;99.90
17639;DHT22;8938;53.546;9.954;2024-01-11T11:41:26;5.40;99.90
17639;DHT22;8938;53.546;9.954;2024-01-11T11:43:52;5.40;99.90
17639;DHT22;8938;53.546;9.954;2024-01-11T11:46:18;5.40;99.90
17639;DHT22;8938;53.546;9.954;2024-01-11T11:48:49;5.40;99.90
17639;DHT22;8938;53.546;9.954;2024-01-11T11:51:20;5.40;99.90
17639;DHT22;8938;53.546;9.954;2024-01-11T11:53:47;5.40;99.90
17639;DHT22;8938;53.546;9.954;2024-01-11T11:56:21;5.40;99.90
17639;DHT22;8938;53.546;9.954;2024-01-11T11:58:48;5.40;99.90
17639;DHT22;8938;53.546;9.954;2024-01-11T12:01:15;5.40;99.90
17639;DHT22;8938;53.546;9.954;2024-01-11T12:03:43;5.40;99.90
17639;DHT22;8938;53.546;9.954;2024-01-11T12:06:14;5.40;99.90
17639;DHT22;8938;53.546;9.954;2024-01-11T12:08:42;5.50;99.90
17639;DHT22;8938;53.546;9.954;2024-01-11T12:11:08;5.50;99.90
17639;DHT22;8938;53.546;9.954;2024-01-11T12:13:34;5.50;99.90
17639;DHT22;8938;53.546;9.954;2024-01-11T12:16:00;5.60;99.90
17639;DHT22;8938;53.546;9.954;2024-01-11T12:18:26;5.60;99.90
17639;DHT22;8938;53.546;9.954;2024-01-11T12:20:52;5.60;99.90
17639;DHT22;8938;53.546;9.954;2024-01-11T12:23:20;5.70;99.90
17639;DHT22;8938;53.546;9.954;2024-01-11T12:25:46;5.70;99.90
17639;DHT22;8938;53.546;9.954;2024-01-11T12:28:12;5.70;99.90
17639;DHT22;8938;53.546;9.954;2024-01-11T12:30:38;5.60;99.90
17639;DHT22;8938;53.546;9.954;2024-01-11T12:33:04;5.70;99.90
17639;DHT22;8938;53.546;9.954;2024-01-11T12:35:31;5.70;99.90
17639;DHT22;8938;53.546;9.954;2024-01-11T12:38:04;5.70;99.90
17639;DHT22;8938;53.546;9.954;2024-01-11T12:40:38;5.70;99.90
17639;DHT22;8938;53.546;9.954;2024-01-11T12:43:04;5.70;99.90
17639;DHT22;8938;53.546;9.954;2024-01-11T12:45:31;5.70;99.90
17639;DHT22;8938;53.546;9.954;2024-01-11T12:47:58;5.80;99.90
17639;DHT22;8938;53.546;9.954;2024-01-11T12:50:26;5.80;99.90
17639;DHT22;8938;53.546;9.954;2024-01-11T12:53:10;5.90;99.90
17639;DHT22;8938;53.546;9.954;2024-01-11T12:55:37;6.00;99.90
17639;DHT22;8938;53.546;9.954;2024-01-11T12:58:09;6.00;99.90
17639;DHT22;8938;53.546;9.954;2024-01-11T13:00:38;6.10;99.90
17639;DHT22;8938;53.546;9.954;2024-01-11T13:03:04;6.30;99.90
17639;DHT22;8938;53.546;9.954;2024-01-11T13:05:31;6.40;99.90
17639;DHT22;8938;53.546;9.954;2024-01-11T13:08:08;6.50;99.90
17639;DHT22;8938;53.546;9.954;2024-01-11T13:10:34;6.40;99.90
17639;DHT22;8938;53.546;9.954;2024-01-11T13:13:01;6.50;99.90
17639;DHT22;8938;53.546;9.954;2024-01-11T13:15:28;6.40;99.90
17639;DHT22;8938;53.546;9.954;2024-01-11T13:17:57;6.50;99.90
17639;DHT22;8938;53.546;9.954;2024-01-11T13:20:23;6.50;99.90
17639;DHT22;8938;53.546;9.954;2024-01-11T13:23:10;6.60;99.90
17639;DHT22;8938;53.546;9.954;2024-01-11T13:25:36;6.60;99.90
17639;DHT22;8938;53.546;9.954;2024-01-11T13:28:02;6.60;99.90
17639;DHT22;8938;53.546;9.954;2024-01-11T13:30:27;6.60;99.90
17639;DHT22;8938;53.546;9.954;2024-01-11T13:32:53;6.60;99.90
17639;DHT22;8938;53.546;9.954;2024-01-11T13:35:19;6.60;99.90
17639;DHT22;8938;53.546;9.954;2024-01-11T13:37:45;6.60;99.90
17639;DHT22;8938;53.546;9.954;2024-01-11T13:40:11;6.60;99.90
17639;DHT22;8938;53.546;9.954;2024-01-11T13:42:39;6.50;99.90
17639;DHT22;8938;53.546;9.954;2024-01-11T13:45:05;6.50;99.90
17639;DHT22;8938;53.546;9.954;2024-01-11T13:47:34;6.50;99.90
17639;DHT22;8938;53.546;9.954;2024-01-11T13:50:00;6.50;99.90
17639;DHT22;8938;53.546;9.954;2024-01-11T13:52:25;6.40;99.90
17639;DHT22;8938;53.546;9.954;2024-01-11T13:54:51;6.50;99.90
17639;DHT22;8938;53.546;9.954;2024-01-11T13:57:17;6.50;99.90
17639;DHT22;8938;53.546;9.954;2024-01-11T13:59:42;6.50;99.90
17639;DHT22;8938;53.546;9.954;2024-01-11T14:02:08;6.50;99.90
17639;DHT22;8938;53.546;9.954;2024-01-11T14:04:34;6.40;99.90
17639;DHT22;8938;53.546;9.954;2024-01-11T14:07:00;6.40;99.90
17639;DHT22;8938;53.546;9.954;2024-01-11T14:09:25;6.30;99.90
17639;DHT22;8938;53.546;9.954;2024-01-11T14:11:51;6.40;99.90
17639;DHT22;8938;53.546;9.954;2024-01-11T14:14:17;6.30;99.90
17639;DHT22;8938;53.546;9.954;2024-01-11T14:16:44;6.30;99.90
17639;DHT22;8938;53.546;9.954;2024-01-11T14:19:11;6.30;99.90
17639;DHT22;8938;53.546;9.954;2024-01-11T14:21:37;6.30;99.90
17639;DHT22;8938;53.546;9.954;2024-01-11T14:24:04;6.20;99.90
17639;DHT22;8938;53.546;9.954;2024-01-11T14:26:31;6.20;99.90
17639;DHT22;8938;53.546;9.954;2024-01-11T14:28:57;6.20;99.90
17639;DHT22;8938;53.546;9.954;2024-01-11T14:31:22;6.10;99.90
17639;DHT22;8938;53.546;9.954;2024-01-11T14:33:48;6.10;99.90
17639;DHT22;8938;53.546;9.954;2024-01-11T14:36:13;6.10;99.90
17639;DHT22;8938;53.546;9.954;2024-01-11T14:38:40;6.10;99.90
17639;DHT22;8938;53.546;9.954;2024-01-11T14:41:06;6.20;99.90
17639;DHT22;8938;53.546;9.954;2024-01-11T14:43:32;6.20;99.90
17639;DHT22;8938;53.546;9.954;2024-01-11T14:45:58;6.10;99.90
17639;DHT22;8938;53.546;9.954;2024-01-11T14:48:23;6.10;99.90
17639;DHT22;8938;53.546;9.954;2024-01-11T14:50:49;6.10;99.90
17639;DHT22;8938;53.546;9.954;2024-01-11T14:53:15;6.20;99.90
17639;DHT22;8938;53.546;9.954;2024-01-11T14:55:40;6.20;99.90
17639;DHT22;8938;53.546;9.954;2024-01-11T14:58:06;6.20;99.90
17639;DHT22;8938;53.546;9.954;2024-01-11T15:00:31;6.20;99.90
17639;DHT22;8938;53.546;9.954;2024-01-11T15:02:57;6.30;99.90
17639;DHT22;8938;53.546;9.954;2024-01-11T15:05:22;6.30;99.90
17639;DHT22;8938;53.546;9.954;2024-01-11T15:07:48;6.30;99.90
17639;DHT22;8938;53.546;9.954;2024-01-11T15:10:14;6.30;99.90
17639;DHT22;8938;53.546;9.954;2024-01-11T15:12:39;6.20;99.90
17639;DHT22;8938;53.546;9.954;2024-01-11T15:15:05;6.20;99.90
17639;DHT22;8938;53.546;9.954;2024-01-11T15:17:32;6.10;99.90
17639;DHT22;8938;53.546;9.954;2024-01-11T15:19:57;6.10;99.90
17639;DHT22;8938;53.546;9.954;2024-01-11T15:22:23;6.10;99.90
17639;DHT22;8938;53.546;9.954;2024-01-11T15:24:49;6.10;99.90
17639;DHT22;8938;53.546;9.954;2024-01-11T15:27:19;6.10;99.90
17639;DHT22;8938;53.546;9.954;2024-01-11T15:29:46;6.10;99.90
17639;DHT22;8938;53.546;9.954;2024-01-11T15:32:12;6.20;99.90
17639;DHT22;8938;53.546;9.954;2024-01-11T15:34:38;6.20;99.90
17639;DHT22;8938;53.546;9.954;2024-01-11T15:37:04;6.10;99.90
17639;DHT22;8938;53.546;9.954;2024-01-11T15:39:29;6.20;99.90
17639;DHT22;8938;53.546;9.954;2024-01-11T15:41:55;6.20;99.90
17639;DHT22;8938;53.546;9.954;2024-01-11T15:44:21;6.20;99.90
17639;DHT22;8938;53.546;9.954;2024-01-11T15:46:51;6.20;99.90
17639;DHT22;8938;53.546;9.954;2024-01-11T15:49:16;6.20;99.90
17639;DHT22;8938;53.546;9.954;2024-01-11T15:51:42;6.20;99.90
17639;DHT22;8938;53.546;9.954;2024-01-11T15:54:07;6.20;99.90
17639;DHT22;8938;53.546;9.954;2024-01-11T15:56:33;6.30;99.90
17639;DHT22;8938;53.546;9.954;2024-01-11T15:58:59;6.30;99.90
17639;DHT22;8938;53.546;9.954;2024-01-11T16:01:24;6.30;99.90